Shevlin, Minnesota
Current Conditions -  °F | °C
As of 8:13 AM on Tuesday 27 Jan 2015 (Local Time) from KBJI Reporting Station
Overcast Overcast  
Wind Chill: 16°   Ceiling: 200
Heat Index: 25°   Visibility: 10mi
Dew Point: 24°   Wind: 8mph
Humidity: 97%   Direction: 170°S
Pressure: 30.06"   Gusts: NA
Location:  47.53°N, 95.26°W
Report Text: KBJI 271413Z AUTO 17007KT 10SM OVC002 M04/M04 A3006 RMK AO2 T10411045
Loading
Personal Weather Stations






























Interactive Weather Map New forecast layout! Learn more

10-Day Weather Forecast

Advertisements
Track Severe Weather on mobile